KCEY/CEY METAR and TAF weather

Enter ICAO airport designator
Station Type Date Time Source
KCEY METAR 2021/02/27 09:55 UTC NOAA

KCEY 270955Z AUTO 27007KT 2 1/2SM OVC003 09/09 A2998 RMK AO1


Station Type Date Time Source
KCEY Decoded METAR 2021/02/27 09:55 UTC NOAA

Station name not available
Feb 27, 2021 - 04:55 AM EST / 2021.02.27 0955 UTC
Wind: from the W (270 degrees) at 8 MPH (7 KT):0
Visibility: 2 1/2 mile(s):0
Sky conditions: overcast
Temperature: 48 F (9 C)
Dew Point: 48 F (9 C)
Relative Humidity: 100%
Pressure (altimeter): 29.98 in. Hg (1015 hPa)
ob: KCEY 270955Z AUTO 27007KT 2 1/2SM OVC003 09/09 A2998 RMK AO1
cycle: 10

Station Type Date Time Source
KCEY TAF UTC NOAA

Error!

Example: see airport list